createdAt,value
2022-08-08T00:01:52.521Z,98712.84
2022-08-08T00:04:49.471Z,98715.38
2022-08-08T00:07:43.587Z,98714.84
2022-08-08T00:10:28.498Z,98712.97
2022-08-08T00:13:10.030Z,98713.25
2022-08-08T00:15:58.368Z,98725.97
2022-08-08T00:19:08.589Z,98720.06
2022-08-08T00:21:45.151Z,98718.66
2022-08-08T00:24:33.570Z,98723.81
2022-08-08T00:27:06.522Z,98723.53
2022-08-08T00:29:51.826Z,98721.47
2022-08-08T00:32:51.786Z,98714.72
2022-08-08T00:35:56.959Z,98723.00
2022-08-08T00:38:56.040Z,98728.09
2022-08-08T00:42:07.870Z,98717.94
2022-08-08T00:45:21.097Z,98723.31
2022-08-08T00:48:33.907Z,98726.78
2022-08-08T00:51:59.184Z,98726.88
2022-08-08T00:54:45.793Z,98728.28
2022-08-08T00:58:21.227Z,98731.66
2022-08-08T01:01:29.411Z,98732.31
2022-08-08T01:04:34.860Z,98740.50
2022-08-08T01:07:55.676Z,98737.03
2022-08-08T01:11:09.745Z,98745.66
2022-08-08T01:14:54.855Z,98749.44
2022-08-08T01:17:51.513Z,98742.09
2022-08-08T01:20:53.511Z,98745.91
2022-08-08T01:24:20.609Z,98740.72
2022-08-08T01:27:44.875Z,98745.94
2022-08-08T01:30:55.818Z,98744.31
2022-08-08T01:34:00.609Z,98735.88
2022-08-08T01:37:06.799Z,98741.31
2022-08-08T01:39:56.876Z,98742.84
2022-08-08T01:42:50.813Z,98742.84
2022-08-08T01:46:03.280Z,98733.03
2022-08-08T01:49:22.876Z,98736.44
2022-08-08T01:52:57.263Z,98737.38
2022-08-08T01:56:28.648Z,98744.31
2022-08-08T01:58:47.222Z,98747.03
2022-08-08T02:02:00.307Z,98744.84
2022-08-08T02:04:46.066Z,98748.06
2022-08-08T02:07:41.762Z,98746.91
2022-08-08T02:10:59.168Z,98747.41
2022-08-08T02:13:55.584Z,98750.53
2022-08-08T02:17:03.758Z,98740.47
2022-08-08T02:20:09.437Z,98738.44
2022-08-08T02:23:18.390Z,98745.94
2022-08-08T02:26:00.743Z,98749.00
2022-08-08T02:29:18.591Z,98751.91
2022-08-08T02:32:09.801Z,98743.31
2022-08-08T02:36:05.216Z,98737.53
2022-08-08T02:39:40.555Z,98742.31
2022-08-08T02:43:00.709Z,98740.53
2022-08-08T02:46:00.731Z,98745.13
2022-08-08T02:49:27.355Z,98745.75
2022-08-08T02:52:34.797Z,98751.63
2022-08-08T02:56:03.274Z,98747.94
2022-08-08T02:59:57.270Z,98749.50
2022-08-08T03:02:52.493Z,98756.09
2022-08-08T03:05:59.854Z,98754.06
2022-08-08T03:09:28.743Z,98755.25
2022-08-08T03:13:01.558Z,98760.22
2022-08-08T03:15:56.773Z,98769.34
2022-08-08T03:18:43.862Z,98768.88
2022-08-08T03:21:14.518Z,98774.59
2022-08-08T03:23:57.607Z,98763.78
2022-08-08T03:26:42.011Z,98772.91
2022-08-08T03:29:27.012Z,98775.53
2022-08-08T03:32:29.080Z,98772.69
2022-08-08T03:34:57.914Z,98771.88
2022-08-08T03:38:53.156Z,98779.13
2022-08-08T03:40:30.612Z,98773.09
2022-08-08T03:43:16.725Z,98780.06
2022-08-08T03:46:06.326Z,98784.53
2022-08-08T03:49:56.324Z,98784.06
2022-08-08T03:51:51.085Z,98779.59
2022-08-08T03:54:41.699Z,98789.13
2022-08-08T03:58:09.493Z,98786.72
2022-08-08T04:00:11.230Z,98796.09
2022-08-08T04:02:51.882Z,98804.88
2022-08-08T04:05:22.788Z,98795.66
2022-08-08T04:08:00.762Z,98796.47
2022-08-08T04:10:32.884Z,98804.50
2022-08-08T04:13:08.216Z,98805.75
2022-08-08T04:16:03.443Z,98802.75
2022-08-08T04:18:41.895Z,98798.63
2022-08-08T04:21:13.071Z,98806.09
2022-08-08T04:24:05.335Z,98809.63
2022-08-08T04:26:35.471Z,98814.91
2022-08-08T04:29:16.406Z,98817.84
2022-08-08T04:31:59.438Z,98814.28
2022-08-08T04:34:32.257Z,98817.31
2022-08-08T04:37:11.931Z,98820.94
2022-08-08T04:40:03.506Z,98825.25
2022-08-08T04:42:31.565Z,98830.75
2022-08-08T04:45:05.299Z,98836.13
2022-08-08T04:47:36.517Z,98828.09
2022-08-08T04:50:14.312Z,98834.16
2022-08-08T04:53:00.902Z,98834.06
2022-08-08T04:55:47.062Z,98840.47
2022-08-08T04:58:17.497Z,98838.91
2022-08-08T05:00:48.352Z,98842.41
2022-08-08T05:03:18.942Z,98839.09
2022-08-08T05:06:13.309Z,98841.16
2022-08-08T05:08:43.171Z,98847.69
2022-08-08T05:11:24.635Z,98842.88
2022-08-08T05:14:01.241Z,98839.66
2022-08-08T05:16:51.871Z,98838.03
2022-08-08T05:20:11.162Z,98844.44
2022-08-08T05:22:10.959Z,98838.72
2022-08-08T05:24:48.819Z,98838.44
2022-08-08T05:27:18.933Z,98832.88
2022-08-08T05:29:51.890Z,98831.75
2022-08-08T05:32:24.391Z,98842.13
2022-08-08T05:35:04.781Z,98835.50
2022-08-08T05:37:51.976Z,98835.19
2022-08-08T05:40:28.323Z,98838.19
2022-08-08T05:43:38.432Z,98838.91
2022-08-08T05:46:01.910Z,98843.34
2022-08-08T05:48:34.674Z,98846.38
2022-08-08T05:51:14.930Z,98836.22
2022-08-08T05:54:24.920Z,98843.44
2022-08-08T05:56:41.891Z,98841.75
2022-08-08T05:59:59.868Z,98841.88
2022-08-08T06:02:40.715Z,98840.97
2022-08-08T06:05:34.550Z,98839.72
2022-08-08T06:08:02.353Z,98842.34
2022-08-08T06:10:34.581Z,98852.84
2022-08-08T06:13:02.873Z,98837.47
2022-08-08T06:15:50.879Z,98849.25
2022-08-08T06:18:25.642Z,98846.81
2022-08-08T06:21:03.447Z,98835.94
2022-08-08T06:23:52.865Z,98844.75
2022-08-08T06:26:44.695Z,98845.56
2022-08-08T06:29:59.360Z,98843.84
2022-08-08T06:32:17.142Z,98854.97
2022-08-08T06:35:12.234Z,98852.28
2022-08-08T06:37:55.787Z,98856.00
2022-08-08T06:40:29.920Z,98854.53
2022-08-08T06:43:10.028Z,98868.28
2022-08-08T06:45:48.315Z,98858.34
2022-08-08T06:48:17.224Z,98861.25
2022-08-08T06:50:45.936Z,98861.38
2022-08-08T06:53:20.139Z,98862.06
2022-08-08T06:56:02.625Z,98862.84
2022-08-08T06:58:34.056Z,98865.50
2022-08-08T07:01:11.482Z,98862.16
2022-08-08T07:04:37.357Z,98860.22
2022-08-08T07:07:00.985Z,98859.84
2022-08-08T07:09:59.521Z,98865.59
2022-08-08T07:12:41.094Z,98862.00
2022-08-08T07:15:32.546Z,98863.34
2022-08-08T07:18:35.467Z,98853.22
2022-08-08T07:20:58.580Z,98853.72
2022-08-08T07:23:57.571Z,98858.09
2022-08-08T07:26:35.565Z,98857.59
2022-08-08T07:29:08.347Z,98854.16
2022-08-08T07:31:41.397Z,98858.47
2022-08-08T07:34:26.689Z,98859.06
2022-08-08T07:37:11.896Z,98854.63
2022-08-08T07:39:45.653Z,98854.09
2022-08-08T07:42:25.946Z,98863.41
2022-08-08T07:45:02.905Z,98857.91
2022-08-08T07:47:39.287Z,98852.38
2022-08-08T07:50:10.748Z,98863.78
2022-08-08T07:52:47.262Z,98861.00
2022-08-08T07:55:28.638Z,98860.34
2022-08-08T07:58:08.379Z,98860.44
2022-08-08T08:01:08.261Z,98868.94
2022-08-08T08:04:13.789Z,98863.41
2022-08-08T08:06:43.474Z,98867.56
2022-08-08T08:09:26.560Z,98866.25
2022-08-08T08:11:56.714Z,98873.09
2022-08-08T08:14:55.654Z,98865.28
2022-08-08T08:17:25.757Z,98872.97
2022-08-08T08:20:05.235Z,98859.97
2022-08-08T08:22:33.795Z,98867.53
2022-08-08T08:25:07.440Z,98862.91
2022-08-08T08:27:35.823Z,98863.25
2022-08-08T08:30:03.924Z,98857.13
2022-08-08T08:32:36.364Z,98857.44
2022-08-08T08:35:13.226Z,98850.94
2022-08-08T08:38:13.329Z,98855.94
2022-08-08T08:40:33.074Z,98852.56
2022-08-08T08:43:03.213Z,98853.97
2022-08-08T08:45:32.189Z,98859.13
2022-08-08T08:48:03.165Z,98850.41
2022-08-08T08:50:41.057Z,98860.38
2022-08-08T08:53:27.290Z,98858.03
2022-08-08T08:56:13.844Z,98849.63
2022-08-08T08:58:46.967Z,98845.09
2022-08-08T09:01:23.871Z,98837.81
2022-08-08T09:03:56.005Z,98848.38
2022-08-08T09:06:33.553Z,98838.78
2022-08-08T09:09:26.381Z,98846.56
2022-08-08T09:12:07.614Z,98835.03
2022-08-08T09:14:42.467Z,98852.97
2022-08-08T09:17:18.249Z,98845.38
2022-08-08T09:21:56.668Z,98844.00
2022-08-08T09:22:36.665Z,98832.22
2022-08-08T09:25:09.786Z,98832.84
2022-08-08T09:27:55.725Z,98837.53
2022-08-08T09:30:27.974Z,98852.31
2022-08-08T09:33:12.678Z,98851.28
2022-08-08T09:35:49.739Z,98851.88
2022-08-08T09:38:33.823Z,98844.69
2022-08-08T09:41:06.507Z,98840.47
2022-08-08T09:44:06.782Z,98843.59
2022-08-08T09:46:34.751Z,98843.50
2022-08-08T09:49:17.964Z,98840.84
2022-08-08T09:52:01.638Z,98835.09
2022-08-08T09:54:44.847Z,98833.84
2022-08-08T09:57:18.920Z,98832.81
2022-08-08T10:00:14.644Z,98831.34
2022-08-08T10:02:45.293Z,98828.38
2022-08-08T10:05:22.771Z,98823.47
2022-08-08T10:07:59.777Z,98819.56
2022-08-08T10:10:33.220Z,98826.25
2022-08-08T10:13:30.013Z,98837.63
2022-08-08T10:16:03.427Z,98834.50
2022-08-08T10:18:34.121Z,98833.34
2022-08-08T10:21:23.203Z,98827.16
2022-08-08T10:23:58.080Z,98818.53
2022-08-08T10:26:57.190Z,98823.91
2022-08-08T10:29:59.067Z,98822.03
2022-08-08T10:32:32.742Z,98819.00
2022-08-08T10:35:04.993Z,98817.13
2022-08-08T10:37:39.934Z,98823.34
2022-08-08T10:40:16.282Z,98818.31
2022-08-08T10:42:45.479Z,98815.03
2022-08-08T10:45:16.148Z,98812.28
2022-08-08T10:47:55.292Z,98820.50
2022-08-08T10:50:31.452Z,98806.28
2022-08-08T10:53:07.836Z,98799.25
2022-08-08T10:55:46.536Z,98807.50
2022-08-08T10:58:15.547Z,98801.53
2022-08-08T11:00:53.396Z,98813.94
2022-08-08T11:04:00.550Z,98806.69
2022-08-08T11:06:34.133Z,98809.34
2022-08-08T11:09:15.058Z,98798.84
2022-08-08T11:12:05.864Z,98795.94
2022-08-08T11:14:35.014Z,98797.44
2022-08-08T11:17:03.885Z,98784.97
2022-08-08T11:19:33.193Z,98795.41
2022-08-08T11:22:01.217Z,98787.13
2022-08-08T11:24:33.457Z,98791.31
2022-08-08T11:27:10.701Z,98780.09
2022-08-08T11:30:04.332Z,98768.44
2022-08-08T11:32:41.921Z,98765.50
2022-08-08T11:35:27.756Z,98770.84
2022-08-08T11:38:36.387Z,98775.47
2022-08-08T11:40:52.478Z,98788.81
2022-08-08T11:43:24.454Z,98784.88
2022-08-08T11:46:09.738Z,98773.66
2022-08-08T11:48:40.771Z,98770.28
2022-08-08T11:51:38.750Z,98766.28
2022-08-08T11:54:01.193Z,98772.03
2022-08-08T11:56:42.172Z,98765.69
2022-08-08T11:59:11.764Z,98765.00
2022-08-08T12:01:39.310Z,98768.09
2022-08-08T12:04:09.357Z,98766.38
2022-08-08T12:06:39.363Z,98768.75
2022-08-08T12:09:09.489Z,98761.09
2022-08-08T12:11:45.847Z,98764.09
2022-08-08T12:14:23.321Z,98760.22
2022-08-08T12:16:54.738Z,98747.69
2022-08-08T12:19:37.950Z,98750.84
2022-08-08T12:22:13.207Z,98753.88
2022-08-08T12:24:53.727Z,98747.22
2022-08-08T12:27:21.548Z,98749.22
2022-08-08T12:29:59.903Z,98747.84
2022-08-08T12:32:31.361Z,98732.00
2022-08-08T12:35:04.152Z,98736.16
2022-08-08T12:37:47.866Z,98735.59
2022-08-08T12:40:22.389Z,98739.03
2022-08-08T12:42:52.432Z,98741.31
2022-08-08T12:45:59.590Z,98736.19
2022-08-08T12:48:36.606Z,98735.84
2022-08-08T12:51:11.089Z,98741.88
2022-08-08T12:53:57.480Z,98744.25
2022-08-08T12:56:37.616Z,98730.81
2022-08-08T13:00:03.621Z,98719.91
2022-08-08T13:02:42.120Z,98730.22
2022-08-08T13:05:27.056Z,98730.72
2022-08-08T13:08:21.970Z,98739.91
2022-08-08T13:10:58.248Z,98734.75
2022-08-08T13:13:34.735Z,98731.69
2022-08-08T13:16:19.792Z,98736.75
2022-08-08T13:18:57.281Z,98731.34
2022-08-08T13:21:48.539Z,98734.16
2022-08-08T13:24:18.782Z,98724.09
2022-08-08T13:27:10.781Z,98734.84
2022-08-08T13:29:48.979Z,98724.91
2022-08-08T13:32:20.853Z,98724.31
2022-08-08T13:34:53.086Z,98723.09
2022-08-08T13:37:28.310Z,98718.63
2022-08-08T13:40:11.237Z,98716.63
2022-08-08T13:42:45.634Z,98721.13
2022-08-08T13:45:20.325Z,98726.94
2022-08-08T13:48:01.850Z,98713.16
2022-08-08T13:50:50.518Z,98719.72
2022-08-08T13:53:31.413Z,98713.78
2022-08-08T13:56:05.209Z,98713.28
2022-08-08T13:58:33.195Z,98712.25
2022-08-08T14:01:13.706Z,98710.22
2022-08-08T14:03:55.483Z,98711.31
2022-08-08T14:06:33.892Z,98719.81
2022-08-08T14:09:24.550Z,98716.88
2022-08-08T14:11:49.818Z,98707.81
2022-08-08T14:14:20.872Z,98702.91
2022-08-08T14:16:53.830Z,98698.41
2022-08-08T14:19:57.544Z,98700.53
2022-08-08T14:22:27.474Z,98693.53
2022-08-08T14:25:02.383Z,98690.94
2022-08-08T14:27:40.408Z,98698.63
2022-08-08T14:30:18.462Z,98693.28
2022-08-08T14:32:52.976Z,98696.81
2022-08-08T14:35:24.611Z,98695.16
2022-08-08T14:38:09.458Z,98692.56
2022-08-08T14:40:41.675Z,98689.97
2022-08-08T14:43:22.169Z,98691.88
2022-08-08T14:46:09.453Z,98693.50
2022-08-08T14:48:52.568Z,98690.44
2022-08-08T14:51:52.574Z,98689.16
2022-08-08T14:54:28.786Z,98685.13
2022-08-08T14:56:58.100Z,98692.69
2022-08-08T14:59:44.665Z,98686.63
2022-08-08T15:02:15.410Z,98687.31
2022-08-08T15:04:43.213Z,98693.47
2022-08-08T15:07:24.219Z,98693.59
2022-08-08T15:10:00.441Z,98699.63
2022-08-08T15:12:28.744Z,98691.25
2022-08-08T15:14:56.339Z,98684.09
2022-08-08T15:17:24.068Z,98686.63
2022-08-08T15:19:52.101Z,98684.63
2022-08-08T15:22:23.735Z,98679.66
2022-08-08T15:24:51.897Z,98695.63
2022-08-08T15:27:58.300Z,98691.25
2022-08-08T15:30:08.218Z,98686.47
2022-08-08T15:32:40.600Z,98691.91
2022-08-08T15:35:11.234Z,98683.88
2022-08-08T15:37:39.117Z,98704.72
2022-08-08T15:40:11.366Z,98689.31
2022-08-08T15:42:47.592Z,98694.28
2022-08-08T15:45:17.046Z,98696.75
2022-08-08T15:48:04.161Z,98694.88
2022-08-08T15:50:58.734Z,98694.78
2022-08-08T15:53:28.179Z,98699.16
2022-08-08T15:56:12.661Z,98691.31
2022-08-08T15:58:48.275Z,98692.97
2022-08-08T16:01:16.724Z,98690.84
2022-08-08T16:03:47.983Z,98696.31
2022-08-08T16:06:28.563Z,98688.78
2022-08-08T16:13:02.517Z,98685.44
2022-08-08T16:13:05.030Z,98685.69
2022-08-08T16:14:34.906Z,98684.38
2022-08-08T16:17:05.648Z,98682.97
2022-08-08T16:19:56.914Z,98685.91
2022-08-08T16:22:29.922Z,98691.81
2022-08-08T16:24:58.891Z,98687.06
2022-08-08T16:27:35.222Z,98680.78
2022-08-08T16:30:10.540Z,98684.66
2022-08-08T16:32:41.839Z,98687.22
2022-08-08T16:35:09.924Z,98683.19
2022-08-08T16:37:40.488Z,98687.56
2022-08-08T16:40:14.211Z,98687.56
2022-08-08T16:42:51.856Z,98687.22
2022-08-08T16:46:36.475Z,98688.25
2022-08-08T16:48:09.379Z,98693.00
2022-08-08T16:50:40.649Z,98694.00
2022-08-08T16:55:20.748Z,98689.00
2022-08-08T16:55:57.702Z,98689.25
2022-08-08T16:58:27.022Z,98688.66
2022-08-08T17:01:00.354Z,98693.47
2022-08-08T17:03:58.670Z,98695.66
2022-08-08T17:06:36.190Z,98700.34
2022-08-08T17:09:03.432Z,98692.47
2022-08-08T17:11:39.282Z,98692.34
2022-08-08T17:14:18.903Z,98696.78
2022-08-08T17:16:57.755Z,98698.13
2022-08-08T17:19:27.435Z,98698.75
2022-08-08T17:21:56.890Z,98700.91
2022-08-08T17:24:27.669Z,98703.47
2022-08-08T17:26:58.086Z,98701.69
2022-08-08T17:29:27.085Z,98702.97
2022-08-08T17:31:54.983Z,98705.09
2022-08-08T17:34:49.709Z,98703.69
2022-08-08T17:37:13.720Z,98711.41
2022-08-08T17:40:03.019Z,98713.38
2022-08-08T17:42:29.139Z,98723.81
2022-08-08T17:44:58.335Z,98720.16
2022-08-08T17:47:28.092Z,98722.31
2022-08-08T17:50:06.240Z,98719.41
2022-08-08T17:52:35.434Z,98731.34
2022-08-08T17:56:03.431Z,98724.91
2022-08-08T17:57:54.204Z,98729.56
2022-08-08T18:00:30.473Z,98729.56
2022-08-08T18:03:08.406Z,98736.94
2022-08-08T18:05:49.732Z,98744.25
2022-08-08T18:08:25.227Z,98732.84
2022-08-08T18:11:11.460Z,98735.78
2022-08-08T18:13:41.876Z,98739.19
2022-08-08T18:16:11.060Z,98738.78
2022-08-08T18:18:42.701Z,98733.22
2022-08-08T18:21:34.840Z,98738.25
2022-08-08T18:24:01.050Z,98741.84
2022-08-08T18:26:29.681Z,98741.84
2022-08-08T18:28:57.610Z,98746.84
2022-08-08T18:31:27.831Z,98752.06
2022-08-08T18:34:12.305Z,98751.81
2022-08-08T18:36:44.558Z,98753.69
2022-08-08T18:39:16.413Z,98765.56
2022-08-08T18:41:59.744Z,98762.03
2022-08-08T18:44:32.946Z,98762.19
2022-08-08T18:47:02.466Z,98768.41
2022-08-08T18:49:32.367Z,98773.97
2022-08-08T18:52:18.591Z,98772.69
2022-08-08T18:54:59.802Z,98774.09
2022-08-08T18:57:31.533Z,98781.09
2022-08-08T19:00:06.707Z,98783.34
2022-08-08T19:02:38.254Z,98784.13
2022-08-08T19:05:16.735Z,98801.25
2022-08-08T19:07:52.176Z,98806.78
2022-08-08T19:10:20.551Z,98804.19
2022-08-08T19:12:53.117Z,98809.88
2022-08-08T19:15:23.858Z,98808.75
2022-08-08T19:18:31.757Z,98815.06
2022-08-08T19:20:43.049Z,98814.31
2022-08-08T19:23:13.947Z,98817.31
2022-08-08T19:26:02.208Z,98818.47
2022-08-08T19:28:31.511Z,98825.38
2022-08-08T19:31:03.937Z,98831.03
2022-08-08T19:33:52.154Z,98830.38
2022-08-08T19:36:25.293Z,98827.41
2022-08-08T19:38:57.072Z,98837.53
2022-08-08T19:41:33.571Z,98838.75
2022-08-08T19:44:03.581Z,98841.22
2022-08-08T19:46:40.542Z,98845.31
2022-08-08T19:49:09.757Z,98845.97
2022-08-08T19:51:39.587Z,98849.94
2022-08-08T19:54:11.424Z,98843.25
2022-08-08T19:56:41.378Z,98854.38
2022-08-08T19:59:10.345Z,98847.63
2022-08-08T20:02:02.267Z,98853.34
2022-08-08T20:04:29.401Z,98855.81
2022-08-08T20:06:57.792Z,98856.88
2022-08-08T20:09:32.547Z,98866.09
2022-08-08T20:12:09.334Z,98867.22
2022-08-08T20:14:42.292Z,98864.66
2022-08-08T20:17:27.790Z,98860.81
2022-08-08T20:20:08.857Z,98866.25
2022-08-08T20:22:40.361Z,98872.97
2022-08-08T20:25:14.378Z,98870.38
2022-08-08T20:27:49.443Z,98877.13
2022-08-08T20:30:53.262Z,98879.66
2022-08-08T20:33:08.055Z,98877.31
2022-08-08T20:35:56.977Z,98879.66
2022-08-08T20:38:31.927Z,98876.31
2022-08-08T20:41:12.224Z,98871.94
2022-08-08T20:43:49.275Z,98872.63
2022-08-08T20:46:21.042Z,98871.63
2022-08-08T20:48:55.619Z,98878.84
2022-08-08T20:51:27.415Z,98872.47
2022-08-08T20:54:03.591Z,98871.28
2022-08-08T20:57:04.490Z,98872.28
2022-08-08T20:59:25.342Z,98873.41
2022-08-08T21:02:07.160Z,98884.13
2022-08-08T21:04:36.800Z,98885.06
2022-08-08T21:07:08.170Z,98886.88
2022-08-08T21:09:48.537Z,98882.53
2022-08-08T21:12:33.085Z,98882.16
2022-08-08T21:15:09.479Z,98881.97
2022-08-08T21:17:37.811Z,98885.59
2022-08-08T21:20:06.200Z,98889.31
2022-08-08T21:22:33.961Z,98885.47
2022-08-08T21:25:02.111Z,98884.09
2022-08-08T21:27:38.860Z,98884.88
2022-08-08T21:30:21.707Z,98888.03
2022-08-08T21:32:51.572Z,98888.16
2022-08-08T21:36:17.422Z,98884.06
2022-08-08T21:38:16.491Z,98879.53
2022-08-08T21:40:55.017Z,98879.28
2022-08-08T21:43:34.324Z,98882.34
2022-08-08T21:48:05.020Z,98874.16
2022-08-08T21:48:53.258Z,98873.22
2022-08-08T21:54:31.739Z,98874.81
2022-08-08T21:54:34.460Z,98881.72
2022-08-08T21:56:59.203Z,98877.72
2022-08-08T21:59:44.176Z,98878.19
2022-08-08T22:02:15.983Z,98882.22
2022-08-08T22:04:43.622Z,98877.56
2022-08-08T22:07:11.384Z,98878.84
2022-08-08T22:09:43.799Z,98879.34
2022-08-08T22:12:15.077Z,98882.56
2022-08-08T22:14:47.434Z,98887.50
2022-08-08T22:17:18.391Z,98884.47
2022-08-08T22:20:10.442Z,98887.41
2022-08-08T22:22:38.043Z,98888.47
2022-08-08T22:25:19.804Z,98883.28
2022-08-08T22:28:03.959Z,98881.59
2022-08-08T22:30:33.579Z,98886.47
2022-08-08T22:33:01.892Z,98877.94
2022-08-08T22:36:04.098Z,98879.47
2022-08-08T22:38:17.501Z,98882.25
2022-08-08T22:40:48.365Z,98877.41
2022-08-08T22:43:17.315Z,98888.75
2022-08-08T22:45:46.426Z,98884.72
2022-08-08T22:48:14.598Z,98881.69
2022-08-08T22:50:49.002Z,98883.72
2022-08-08T22:54:29.354Z,98876.09
2022-08-08T22:56:04.484Z,98880.75
2022-08-08T22:58:33.793Z,98883.78
2022-08-08T23:02:01.888Z,98907.41
2022-08-08T23:03:56.575Z,98898.81
2022-08-08T23:06:25.406Z,98896.50
2022-08-08T23:08:58.559Z,98893.94
2022-08-08T23:11:31.093Z,98902.06
2022-08-08T23:14:20.841Z,98894.19
2022-08-08T23:16:57.579Z,98898.56
2022-08-08T23:19:30.779Z,98889.34
2022-08-08T23:22:04.522Z,98897.50
2022-08-08T23:24:36.778Z,98901.94
2022-08-08T23:27:09.815Z,98895.19
2022-08-08T23:29:38.152Z,98903.06
2022-08-08T23:32:05.962Z,98897.78
2022-08-08T23:34:38.283Z,98914.78
2022-08-08T23:37:05.948Z,98898.22
2022-08-08T23:39:42.114Z,98890.78
2022-08-08T23:42:17.016Z,98893.75
2022-08-08T23:44:45.192Z,98891.13
2022-08-08T23:49:03.890Z,98894.31
2022-08-08T23:50:03.328Z,98890.13
2022-08-08T23:52:33.571Z,98880.38
2022-08-08T23:55:14.682Z,98880.81
2022-08-08T23:57:53.136Z,98889.00
